createdAt,value
2022-12-17T00:01:04.554Z,18.73
2022-12-17T00:03:49.787Z,14.55
2022-12-17T00:06:35.008Z,17.20
2022-12-17T00:09:21.345Z,18.42
2022-12-17T00:14:51.324Z,14.85
2022-12-17T00:17:37.018Z,16.43
2022-12-17T00:20:22.044Z,18.38
2022-12-17T00:23:07.251Z,18.67
2022-12-17T00:25:52.568Z,20.98
2022-12-17T00:28:38.900Z,16.40
2022-12-17T00:34:09.342Z,19.33
2022-12-17T00:36:55.479Z,14.32
2022-12-17T00:39:40.647Z,14.95
2022-12-17T00:42:25.582Z,15.02
2022-12-17T00:45:10.628Z,14.02
2022-12-17T00:47:55.821Z,15.93
2022-12-17T00:50:42.000Z,14.00
2022-12-17T00:53:29.824Z,16.95
2022-12-17T00:56:15.019Z,14.30
2022-12-17T00:59:00.040Z,16.73
2022-12-17T01:01:45.396Z,13.45
2022-12-17T01:04:30.257Z,17.47
2022-12-17T01:07:15.428Z,14.43
2022-12-17T01:10:00.335Z,13.75
2022-12-17T01:12:45.369Z,15.55
2022-12-17T01:15:30.297Z,16.10
2022-12-17T01:18:15.274Z,12.10
2022-12-17T01:21:00.414Z,13.63
2022-12-17T01:23:50.824Z,10.77
2022-12-17T01:26:35.955Z,14.27
2022-12-17T01:29:20.890Z,14.82
2022-12-17T01:32:05.782Z,15.50
2022-12-17T01:34:50.617Z,12.15
2022-12-17T01:37:35.766Z,16.25
2022-12-17T01:40:34.724Z,13.15
2022-12-17T01:43:19.822Z,13.90
2022-12-17T01:46:06.725Z,11.27
2022-12-17T01:49:11.812Z,18.70
2022-12-17T01:51:57.768Z,13.20
2022-12-17T01:54:42.520Z,14.18
2022-12-17T01:57:29.530Z,11.07
2022-12-17T02:00:23.756Z,12.63
2022-12-17T02:03:09.082Z,11.55
2022-12-17T02:06:00.629Z,11.38
2022-12-17T02:08:56.815Z,10.57
2022-12-17T02:11:51.588Z,15.73
2022-12-17T02:14:49.854Z,12.20
2022-12-17T02:17:37.307Z,11.82
2022-12-17T02:20:31.395Z,11.07
2022-12-17T02:23:28.223Z,12.15
2022-12-17T02:28:59.896Z,13.00
2022-12-17T02:31:46.068Z,13.45
2022-12-17T02:37:16.585Z,12.82
2022-12-17T02:40:01.876Z,13.07
2022-12-17T02:42:48.071Z,11.45
2022-12-17T02:45:34.533Z,10.32
2022-12-17T02:48:20.390Z,11.38
2022-12-17T02:51:05.621Z,10.52
2022-12-17T02:53:51.873Z,9.48
2022-12-17T02:59:22.174Z,9.95
2022-12-17T03:02:08.507Z,11.30
2022-12-17T03:04:53.666Z,13.80
2022-12-17T03:07:38.604Z,14.15
2022-12-17T03:10:23.811Z,13.45
2022-12-17T03:13:09.079Z,14.50
2022-12-17T03:15:54.107Z,13.65
2022-12-17T03:18:39.209Z,11.27
2022-12-17T03:21:24.342Z,11.55
2022-12-17T03:24:09.394Z,11.38
2022-12-17T03:26:54.205Z,8.93
2022-12-17T03:29:40.254Z,14.32
2022-12-17T03:32:25.432Z,10.52
2022-12-17T03:35:10.308Z,10.13
2022-12-17T03:37:56.620Z,12.98
2022-12-17T03:43:27.171Z,13.95
2022-12-17T03:46:12.713Z,14.07
2022-12-17T03:48:57.912Z,14.43
2022-12-17T03:51:42.969Z,16.42
2022-12-17T03:54:27.729Z,16.30
2022-12-17T03:57:16.073Z,17.15
2022-12-17T04:00:01.697Z,17.73
2022-12-17T04:02:46.576Z,21.15
2022-12-17T04:05:32.006Z,19.27
2022-12-17T04:08:16.911Z,16.23
2022-12-17T04:11:01.951Z,21.63
2022-12-17T04:13:47.592Z,19.50
2022-12-17T04:16:33.048Z,17.17
2022-12-17T04:19:18.216Z,22.73
2022-12-17T04:22:03.338Z,21.00
2022-12-17T04:24:48.569Z,19.13
2022-12-17T04:27:33.534Z,19.52
2022-12-17T04:30:18.650Z,20.55
2022-12-17T04:33:03.683Z,20.23
2022-12-17T04:35:48.962Z,22.85
2022-12-17T04:38:34.187Z,20.30
2022-12-17T04:41:18.961Z,23.33
2022-12-17T04:44:04.014Z,24.80
2022-12-17T04:46:52.129Z,22.70
2022-12-17T04:49:37.024Z,21.95
2022-12-17T04:52:22.307Z,22.98
2022-12-17T04:55:07.190Z,14.60
2022-12-17T04:57:52.363Z,24.10
2022-12-17T05:00:37.187Z,20.38
2022-12-17T05:03:26.023Z,27.17
2022-12-17T05:06:11.181Z,24.63
2022-12-17T05:08:56.291Z,20.75
2022-12-17T05:11:41.134Z,23.75
2022-12-17T05:14:25.941Z,25.13
2022-12-17T05:17:11.227Z,22.05
2022-12-17T05:19:56.425Z,25.40
2022-12-17T05:22:41.293Z,25.20
2022-12-17T05:25:26.378Z,30.65
2022-12-17T05:28:11.279Z,25.00
2022-12-17T05:30:56.660Z,27.55
2022-12-17T05:33:41.859Z,28.40
2022-12-17T05:36:27.007Z,27.33
2022-12-17T05:39:11.993Z,18.90
2022-12-17T05:41:57.086Z,31.58
2022-12-17T05:44:42.340Z,28.77
2022-12-17T05:47:27.596Z,22.73
2022-12-17T05:50:12.864Z,23.77
2022-12-17T05:52:57.707Z,28.80
2022-12-17T05:55:42.923Z,30.90
2022-12-17T05:58:29.326Z,26.50
2022-12-17T06:03:59.745Z,27.45
2022-12-17T06:06:44.563Z,22.95
2022-12-17T06:09:29.689Z,25.08
2022-12-17T06:12:34.862Z,28.30
2022-12-17T06:15:19.692Z,27.90
2022-12-17T06:18:16.449Z,30.77
2022-12-17T06:21:02.161Z,30.92
2022-12-17T06:23:47.141Z,36.28
2022-12-17T06:26:32.072Z,31.27
2022-12-17T06:29:16.963Z,29.92
2022-12-17T06:32:02.142Z,34.28
2022-12-17T06:34:47.387Z,35.92
2022-12-17T06:37:32.285Z,30.95
2022-12-17T06:40:17.464Z,32.00
2022-12-17T06:43:10.701Z,33.97
2022-12-17T06:45:55.690Z,36.00
2022-12-17T06:48:40.649Z,31.58
2022-12-17T06:51:25.920Z,31.35
2022-12-17T06:54:10.924Z,26.27
2022-12-17T06:56:56.052Z,32.67
2022-12-17T06:59:41.182Z,33.05
2022-12-17T07:02:27.947Z,33.83
2022-12-17T07:05:13.043Z,34.05
2022-12-17T07:07:58.147Z,31.70
2022-12-17T07:10:43.216Z,31.98
2022-12-17T07:13:28.323Z,33.08
2022-12-17T07:16:13.736Z,35.13
2022-12-17T07:18:59.017Z,35.00
2022-12-17T07:21:44.129Z,24.67
2022-12-17T07:24:29.153Z,30.45
2022-12-17T07:27:14.141Z,31.27
2022-12-17T07:29:59.326Z,28.27
2022-12-17T07:32:44.499Z,33.60
2022-12-17T07:35:29.360Z,29.42
2022-12-17T07:38:18.674Z,25.58
2022-12-17T07:41:03.761Z,30.45
2022-12-17T07:43:52.971Z,32.22
2022-12-17T07:46:38.399Z,29.88
2022-12-17T07:49:25.939Z,30.33
2022-12-17T07:52:13.501Z,25.33
2022-12-17T07:54:58.875Z,29.17
2022-12-17T07:57:46.793Z,25.03
2022-12-17T08:00:31.944Z,29.20
2022-12-17T08:03:17.282Z,27.30
2022-12-17T08:06:02.439Z,29.23
2022-12-17T08:08:47.743Z,29.83
2022-12-17T08:11:39.340Z,32.47
2022-12-17T08:14:24.303Z,24.83
2022-12-17T08:17:09.468Z,27.80
2022-12-17T08:19:55.214Z,23.13
2022-12-17T08:22:40.338Z,26.42
2022-12-17T08:25:25.859Z,26.10
2022-12-17T08:28:33.817Z,21.95
2022-12-17T08:31:19.701Z,21.45
2022-12-17T08:34:07.894Z,19.37
2022-12-17T08:36:53.569Z,22.10
2022-12-17T08:39:38.477Z,24.00
2022-12-17T08:42:23.365Z,19.52
2022-12-17T08:45:08.441Z,27.48
2022-12-17T08:47:53.241Z,26.65
2022-12-17T08:50:38.589Z,25.63
2022-12-17T08:53:23.749Z,25.13
2022-12-17T08:56:09.027Z,25.65
2022-12-17T08:58:58.983Z,29.20
2022-12-17T09:01:44.470Z,23.25
2022-12-17T09:04:29.826Z,21.52
2022-12-17T09:07:22.159Z,24.33
2022-12-17T09:10:07.103Z,24.48
2022-12-17T09:12:53.724Z,23.88
2022-12-17T09:15:43.420Z,22.52
2022-12-17T09:18:28.331Z,27.08
2022-12-17T09:21:14.026Z,26.20
2022-12-17T09:23:59.815Z,17.23
2022-12-17T09:26:44.915Z,21.65
2022-12-17T09:29:29.781Z,23.13
2022-12-17T09:32:14.940Z,25.10
2022-12-17T09:35:00.100Z,25.88
2022-12-17T09:37:45.072Z,25.65
2022-12-17T09:40:34.800Z,27.65
2022-12-17T09:43:24.395Z,26.05
2022-12-17T09:46:16.476Z,22.63
2022-12-17T09:49:06.498Z,24.00
2022-12-17T09:51:52.829Z,26.33
2022-12-17T09:57:34.455Z,23.83
2022-12-17T10:00:22.248Z,23.08
2022-12-17T10:03:07.358Z,21.48
2022-12-17T10:05:53.557Z,23.90
2022-12-17T10:08:41.913Z,28.08
2022-12-17T10:11:45.960Z,28.20
2022-12-17T10:14:35.692Z,22.13
2022-12-17T10:17:21.247Z,24.73
2022-12-17T10:20:12.490Z,27.00
2022-12-17T10:23:09.173Z,26.10
2022-12-17T10:25:54.501Z,30.42
2022-12-17T10:28:40.863Z,23.42
2022-12-17T10:31:29.988Z,22.98
2022-12-17T10:34:15.953Z,23.65
2022-12-17T10:37:04.867Z,31.40
2022-12-17T10:39:49.835Z,20.23
2022-12-17T10:43:01.337Z,27.92
2022-12-17T10:45:47.769Z,28.67
2022-12-17T10:48:43.061Z,30.17
2022-12-17T10:51:54.550Z,30.70
2022-12-17T10:54:48.973Z,28.85
2022-12-17T10:57:53.163Z,24.77
2022-12-17T11:00:52.016Z,30.10
2022-12-17T11:03:44.862Z,28.70
2022-12-17T11:06:31.746Z,36.67
2022-12-17T11:09:18.899Z,35.40
2022-12-17T11:12:07.487Z,25.33
2022-12-17T11:14:58.849Z,26.48
2022-12-17T11:17:44.589Z,28.20
2022-12-17T11:20:44.553Z,17.60
2022-12-17T11:23:37.138Z,29.05
2022-12-17T11:26:27.824Z,23.77
2022-12-17T11:29:13.057Z,24.10
2022-12-17T11:32:10.387Z,21.70
2022-12-17T11:35:14.518Z,20.13
2022-12-17T11:37:59.660Z,27.60
2022-12-17T11:40:57.040Z,22.77
2022-12-17T11:43:52.930Z,26.13
2022-12-17T11:46:57.211Z,26.10
2022-12-17T11:49:42.284Z,21.88
2022-12-17T11:52:36.517Z,21.48
2022-12-17T11:55:23.415Z,22.50
2022-12-17T11:58:14.683Z,25.60
2022-12-17T12:01:25.843Z,25.80
2022-12-17T12:04:10.957Z,23.35
2022-12-17T12:07:08.423Z,28.30
2022-12-17T12:09:58.533Z,22.77
2022-12-17T12:12:52.459Z,19.73
2022-12-17T12:15:37.343Z,22.75
2022-12-17T12:18:25.457Z,21.90
2022-12-17T12:21:29.384Z,19.95
2022-12-17T12:24:14.540Z,21.52
2022-12-17T12:27:06.898Z,20.98
2022-12-17T12:30:03.637Z,20.13
2022-12-17T12:35:38.404Z,21.83
2022-12-17T12:38:23.667Z,25.42
2022-12-17T12:41:21.524Z,18.40
2022-12-17T12:44:10.617Z,20.15
2022-12-17T12:46:58.366Z,11.35
2022-12-17T12:49:49.364Z,26.80
2022-12-17T12:52:42.668Z,17.75
2022-12-17T12:55:30.656Z,18.10
2022-12-17T12:58:20.616Z,24.35
2022-12-17T13:01:11.290Z,21.23
2022-12-17T13:04:08.916Z,28.27
2022-12-17T13:06:47.396Z,24.63
2022-12-17T13:09:30.686Z,20.73
2022-12-17T13:12:03.280Z,23.60
2022-12-17T13:14:47.983Z,27.83
2022-12-17T13:17:17.422Z,27.08
2022-12-17T13:19:45.960Z,25.48
2022-12-17T13:22:21.688Z,24.25
2022-12-17T13:25:13.490Z,21.50
2022-12-17T13:27:43.171Z,27.92
2022-12-17T13:30:24.320Z,28.10
2022-12-17T13:32:55.603Z,29.95
2022-12-17T13:35:45.355Z,21.02
2022-12-17T13:38:33.043Z,24.83
2022-12-17T13:41:11.955Z,25.50
2022-12-17T13:43:41.622Z,22.15
2022-12-17T13:46:16.925Z,24.10
2022-12-17T13:48:43.557Z,23.55
2022-12-17T13:51:20.495Z,23.08
2022-12-17T13:53:54.198Z,27.85
2022-12-17T13:56:28.465Z,20.67
2022-12-17T13:58:56.108Z,25.90
2022-12-17T14:01:23.053Z,27.35
2022-12-17T14:04:07.511Z,25.40
2022-12-17T14:06:36.542Z,25.05
2022-12-17T14:09:04.764Z,27.17
2022-12-17T14:11:50.370Z,26.10
2022-12-17T14:14:29.708Z,29.50
2022-12-17T14:16:57.939Z,28.15
2022-12-17T14:19:25.824Z,31.02
2022-12-17T14:21:55.294Z,28.80
2022-12-17T14:24:29.821Z,31.52
2022-12-17T14:27:00.222Z,27.58
2022-12-17T14:29:28.955Z,27.92
2022-12-17T14:31:56.826Z,29.67
2022-12-17T14:34:23.381Z,30.65
2022-12-17T14:36:57.718Z,28.98
2022-12-17T14:39:33.492Z,30.38
2022-12-17T14:42:25.862Z,28.08
2022-12-17T14:45:02.743Z,28.88
2022-12-17T14:47:33.941Z,27.02
2022-12-17T14:50:08.562Z,30.75
2022-12-17T14:52:39.931Z,31.48
2022-12-17T14:55:24.978Z,29.88
2022-12-17T14:57:53.548Z,26.98
2022-12-17T15:00:22.427Z,28.10
2022-12-17T15:02:55.654Z,33.10
2022-12-17T15:05:25.183Z,31.50
2022-12-17T15:07:58.216Z,38.25
2022-12-17T15:10:25.921Z,32.47
2022-12-17T15:12:53.440Z,32.00
2022-12-17T15:15:21.817Z,31.73
2022-12-17T15:17:48.858Z,30.83
2022-12-17T15:20:20.397Z,30.73
2022-12-17T15:22:49.866Z,31.92
2022-12-17T15:25:17.830Z,32.63
2022-12-17T15:27:44.545Z,30.45
2022-12-17T15:30:15.395Z,34.08
2022-12-17T15:32:48.596Z,36.33
2022-12-17T15:35:17.643Z,31.17
2022-12-17T15:37:44.127Z,31.05
2022-12-17T15:40:12.030Z,31.60
2022-12-17T15:43:03.107Z,38.45
2022-12-17T15:45:35.489Z,35.65
2022-12-17T15:48:01.886Z,37.65
2022-12-17T15:50:29.948Z,25.45
2022-12-17T15:52:57.517Z,36.03
2022-12-17T15:55:24.758Z,34.88
2022-12-17T15:57:54.153Z,36.30
2022-12-17T16:00:20.719Z,37.50
2022-12-17T16:02:48.706Z,39.17
2022-12-17T16:05:15.455Z,42.33
2022-12-17T16:07:43.908Z,39.88
2022-12-17T16:10:11.390Z,43.60
2022-12-17T16:12:39.068Z,38.92
2022-12-17T16:15:06.061Z,26.25
2022-12-17T16:17:33.918Z,37.42
2022-12-17T16:20:00.965Z,40.20
2022-12-17T16:22:29.470Z,47.08
2022-12-17T16:24:55.958Z,34.97
2022-12-17T16:27:22.434Z,42.60
2022-12-17T16:29:50.532Z,39.97
2022-12-17T16:32:17.984Z,43.78
2022-12-17T16:34:45.151Z,42.70
2022-12-17T16:37:11.673Z,46.97
2022-12-17T16:39:38.130Z,48.20
2022-12-17T16:42:04.509Z,38.92
2022-12-17T16:44:30.946Z,40.70
2022-12-17T16:46:57.485Z,47.20
2022-12-17T16:49:26.268Z,54.10
2022-12-17T16:51:53.534Z,51.00
2022-12-17T16:54:22.365Z,46.88
2022-12-17T16:56:50.306Z,52.15
2022-12-17T16:59:17.060Z,49.75
2022-12-17T17:01:44.913Z,46.88
2022-12-17T17:04:11.879Z,51.63
2022-12-17T17:06:42.100Z,46.63
2022-12-17T17:09:09.779Z,46.28
2022-12-17T17:11:36.337Z,52.05
2022-12-17T17:14:07.149Z,48.33
2022-12-17T17:16:37.043Z,50.45
2022-12-17T17:19:04.582Z,52.22
2022-12-17T17:21:32.432Z,50.60
2022-12-17T17:23:59.987Z,51.72
2022-12-17T17:26:27.460Z,49.85
2022-12-17T17:28:53.810Z,50.50
2022-12-17T17:31:21.774Z,47.58
2022-12-17T17:33:48.982Z,50.65
2022-12-17T17:36:20.094Z,52.55
2022-12-17T17:38:49.065Z,59.38
2022-12-17T17:41:17.470Z,51.03
2022-12-17T17:43:44.269Z,55.28
2022-12-17T17:46:15.068Z,54.05
2022-12-17T17:48:42.053Z,52.67
2022-12-17T17:51:11.513Z,54.10
2022-12-17T17:53:37.920Z,59.65
2022-12-17T17:56:05.244Z,58.50
2022-12-17T17:58:32.265Z,57.15
2022-12-17T18:00:58.755Z,63.97
2022-12-17T18:03:27.390Z,61.80
2022-12-17T18:05:53.942Z,57.85
2022-12-17T18:08:20.294Z,61.05
2022-12-17T18:10:56.986Z,65.13
2022-12-17T18:13:41.846Z,62.35
2022-12-17T18:16:08.568Z,73.70
2022-12-17T18:18:35.397Z,61.90
2022-12-17T18:21:09.235Z,67.88
2022-12-17T18:23:35.867Z,68.13
2022-12-17T18:26:13.963Z,66.03
2022-12-17T18:28:42.460Z,68.50
2022-12-17T18:31:19.198Z,67.50
2022-12-17T18:33:47.767Z,64.22
2022-12-17T18:36:15.962Z,69.32
2022-12-17T18:38:42.630Z,65.60
2022-12-17T18:41:35.075Z,71.10
2022-12-17T18:44:04.802Z,66.28
2022-12-17T18:46:32.893Z,61.13
2022-12-17T18:49:00.711Z,67.20
2022-12-17T18:51:27.715Z,63.72
2022-12-17T18:53:58.612Z,65.28
2022-12-17T18:56:52.459Z,63.00
2022-12-17T18:59:16.814Z,62.35
2022-12-17T19:01:43.643Z,69.10
2022-12-17T19:04:12.194Z,62.78
2022-12-17T19:06:38.724Z,64.32
2022-12-17T19:09:06.063Z,72.15
2022-12-17T19:11:33.576Z,67.50
2022-12-17T19:13:59.935Z,67.57
2022-12-17T19:16:28.055Z,65.72
2022-12-17T19:19:02.918Z,67.78
2022-12-17T19:21:30.354Z,65.35
2022-12-17T19:24:00.946Z,67.78
2022-12-17T19:26:27.625Z,67.85
2022-12-17T19:28:55.168Z,61.88
2022-12-17T19:31:22.496Z,65.78
2022-12-17T19:33:49.017Z,61.40
2022-12-17T19:36:17.329Z,68.63
2022-12-17T19:38:46.631Z,69.57
2022-12-17T19:41:17.513Z,67.40
2022-12-17T19:43:44.782Z,66.82
2022-12-17T19:46:12.724Z,50.15
2022-12-17T19:48:45.003Z,63.28
2022-12-17T19:51:20.995Z,64.60
2022-12-17T19:53:48.886Z,61.35
2022-12-17T19:56:15.301Z,65.03
2022-12-17T19:58:42.118Z,65.70
2022-12-17T20:01:09.781Z,62.08
2022-12-17T20:03:36.697Z,62.40
2022-12-17T20:06:03.453Z,44.20
2022-12-17T20:08:30.511Z,58.58
2022-12-17T20:10:57.157Z,58.72
2022-12-17T20:13:25.927Z,58.33
2022-12-17T20:16:05.432Z,61.67
2022-12-17T20:18:34.845Z,61.70
2022-12-17T20:21:02.363Z,60.60
2022-12-17T20:23:28.705Z,63.97
2022-12-17T20:26:24.783Z,63.28
2022-12-17T20:28:54.820Z,61.22
2022-12-17T20:31:24.343Z,57.63
2022-12-17T20:33:50.833Z,48.70
2022-12-17T20:36:18.335Z,54.40
2022-12-17T20:38:45.156Z,44.83
2022-12-17T20:41:12.544Z,49.83
2022-12-17T20:43:41.661Z,51.70
2022-12-17T20:46:09.603Z,43.17
2022-12-17T20:48:37.445Z,44.22
2022-12-17T20:51:07.547Z,50.65
2022-12-17T20:53:35.702Z,59.88
2022-12-17T20:56:07.787Z,54.97
2022-12-17T20:58:34.426Z,51.13
2022-12-17T21:01:18.721Z,50.33
2022-12-17T21:03:46.184Z,48.60
2022-12-17T21:06:19.437Z,50.22
2022-12-17T21:08:50.236Z,53.67
2022-12-17T21:11:25.146Z,53.67
2022-12-17T21:13:53.884Z,53.85
2022-12-17T21:16:25.618Z,54.67
2022-12-17T21:18:53.282Z,45.45
2022-12-17T21:21:25.371Z,56.25
2022-12-17T21:23:53.349Z,53.60
2022-12-17T21:26:22.131Z,53.88
2022-12-17T21:28:52.522Z,46.08
2022-12-17T21:31:24.141Z,51.25
2022-12-17T21:33:54.359Z,53.85
2022-12-17T21:36:22.546Z,56.88
2022-12-17T21:38:49.687Z,49.15
2022-12-17T21:41:21.849Z,54.35
2022-12-17T21:44:02.699Z,54.95
2022-12-17T21:46:29.524Z,53.10
2022-12-17T21:48:57.184Z,49.67
2022-12-17T21:51:23.943Z,53.65
2022-12-17T21:53:58.185Z,52.67
2022-12-17T21:56:25.144Z,54.83
2022-12-17T21:58:57.212Z,53.92
2022-12-17T22:01:27.411Z,55.55
2022-12-17T22:03:55.462Z,45.17
2022-12-17T22:06:26.039Z,48.92
2022-12-17T22:09:06.936Z,48.05
2022-12-17T22:11:45.386Z,50.10
2022-12-17T22:14:20.318Z,49.47
2022-12-17T22:16:52.387Z,58.40
2022-12-17T22:19:22.207Z,51.47
2022-12-17T22:21:49.829Z,39.42
2022-12-17T22:24:17.409Z,53.92
2022-12-17T22:26:45.217Z,45.60
2022-12-17T22:29:34.687Z,47.28
2022-12-17T22:32:19.897Z,43.60
2022-12-17T22:36:13.070Z,45.45
2022-12-17T22:40:34.341Z,39.65
2022-12-17T22:44:42.954Z,37.58
2022-12-17T22:44:44.171Z,48.03
2022-12-17T22:46:19.198Z,36.63
2022-12-17T22:48:45.869Z,46.63
2022-12-17T22:51:14.549Z,46.15
2022-12-17T22:53:48.368Z,34.88
2022-12-17T22:56:27.771Z,41.28
2022-12-17T22:59:02.509Z,45.03
2022-12-17T23:01:32.598Z,41.88
2022-12-17T23:03:59.787Z,42.90
2022-12-17T23:06:30.321Z,42.63
2022-12-17T23:08:59.294Z,43.08
2022-12-17T23:11:27.698Z,47.90
2022-12-17T23:13:55.175Z,44.78
2022-12-17T23:16:21.750Z,51.35
2022-12-17T23:18:50.760Z,40.72
2022-12-17T23:21:20.306Z,41.08
2022-12-17T23:23:48.080Z,43.45
2022-12-17T23:26:19.335Z,41.35
2022-12-17T23:28:50.643Z,39.33
2022-12-17T23:31:18.639Z,36.47
2022-12-17T23:33:46.598Z,45.05
2022-12-17T23:36:16.052Z,53.63
2022-12-17T23:38:43.871Z,49.30
2022-12-17T23:41:17.608Z,50.85
2022-12-17T23:43:47.452Z,43.30
2022-12-17T23:46:14.671Z,45.55
2022-12-17T23:48:45.510Z,56.42
2022-12-17T23:51:15.725Z,47.65
2022-12-17T23:53:43.833Z,52.85
2022-12-17T23:56:21.248Z,58.00
2022-12-17T23:58:52.220Z,32.72
